createdAt,value
2023-01-07T00:01:40.332Z,2.20
2023-01-07T00:04:11.734Z,2.30
2023-01-07T00:06:41.653Z,2.20
2023-01-07T00:09:14.076Z,2.10
2023-01-07T00:11:41.974Z,2.00
2023-01-07T00:14:11.511Z,2.03
2023-01-07T00:16:39.745Z,2.10
2023-01-07T00:19:10.170Z,2.03
2023-01-07T00:21:37.458Z,2.50
2023-01-07T00:24:06.465Z,2.25
2023-01-07T00:26:35.640Z,1.80
2023-01-07T00:29:04.656Z,2.10
2023-01-07T00:31:35.247Z,2.20
2023-01-07T00:34:02.805Z,2.30
2023-01-07T00:36:32.164Z,2.60
2023-01-07T00:39:05.933Z,2.10
2023-01-07T00:41:33.849Z,2.40
2023-01-07T00:44:01.439Z,1.77
2023-01-07T00:46:29.739Z,2.35
2023-01-07T00:48:57.239Z,1.85
2023-01-07T00:51:24.706Z,2.10
2023-01-07T00:53:52.111Z,2.03
2023-01-07T00:56:19.590Z,2.10
2023-01-07T00:58:47.174Z,2.28
2023-01-07T01:01:15.807Z,2.00
2023-01-07T01:03:43.250Z,2.10
2023-01-07T01:06:14.436Z,1.75
2023-01-07T01:08:46.436Z,2.65
2023-01-07T01:11:15.884Z,2.10
2023-01-07T01:13:44.531Z,2.03
2023-01-07T01:16:15.390Z,2.20
2023-01-07T01:18:43.385Z,2.30
2023-01-07T01:21:15.020Z,2.10
2023-01-07T01:23:43.227Z,2.22
2023-01-07T01:26:13.658Z,2.35
2023-01-07T01:28:41.197Z,1.95
2023-01-07T01:31:09.731Z,2.55
2023-01-07T01:33:45.686Z,2.40
2023-01-07T01:36:13.318Z,2.20
2023-01-07T01:38:41.567Z,2.30
2023-01-07T01:41:09.379Z,2.78
2023-01-07T01:43:42.864Z,2.10
2023-01-07T01:46:26.579Z,3.30
2023-01-07T01:49:00.242Z,2.30
2023-01-07T01:54:10.577Z,2.30
2023-01-07T01:56:41.326Z,2.28
2023-01-07T01:59:13.384Z,2.58
2023-01-07T02:01:40.960Z,2.33
2023-01-07T02:04:18.486Z,2.30
2023-01-07T02:07:00.574Z,2.25
2023-01-07T02:09:30.199Z,2.22
2023-01-07T02:12:17.888Z,2.38
2023-01-07T02:15:12.140Z,2.10
2023-01-07T02:17:58.194Z,2.20
2023-01-07T02:20:46.639Z,2.22
2023-01-07T02:23:48.135Z,2.45
2023-01-07T02:26:27.651Z,2.17
2023-01-07T02:29:12.963Z,2.20
2023-01-07T02:31:52.223Z,2.10
2023-01-07T02:34:28.517Z,1.88
2023-01-07T02:37:04.901Z,2.10
2023-01-07T02:39:42.897Z,2.28
2023-01-07T02:42:45.981Z,2.05
2023-01-07T02:45:19.246Z,2.00
2023-01-07T02:47:56.808Z,1.80
2023-01-07T02:50:24.235Z,1.70
2023-01-07T02:52:51.493Z,1.85
2023-01-07T02:55:42.874Z,2.10
2023-01-07T02:58:27.492Z,1.88
2023-01-07T03:01:03.816Z,2.33
2023-01-07T03:03:54.466Z,2.03
2023-01-07T03:06:40.282Z,1.80
2023-01-07T03:09:55.802Z,1.80
2023-01-07T03:12:43.218Z,1.98
2023-01-07T03:15:41.871Z,1.80
2023-01-07T03:18:17.152Z,1.60
2023-01-07T03:20:47.403Z,2.10
2023-01-07T03:23:18.097Z,1.83
2023-01-07T03:25:48.066Z,1.60
2023-01-07T03:28:18.737Z,1.60
2023-01-07T03:30:47.932Z,1.77
2023-01-07T03:33:21.852Z,1.65
2023-01-07T03:35:51.613Z,1.63
2023-01-07T03:38:22.378Z,1.10
2023-01-07T03:40:51.964Z,1.42
2023-01-07T03:43:22.170Z,1.70
2023-01-07T03:45:52.031Z,1.55
2023-01-07T03:48:19.925Z,1.23
2023-01-07T03:50:48.855Z,1.50
2023-01-07T03:53:17.064Z,1.40
2023-01-07T03:55:48.440Z,1.58
2023-01-07T03:58:15.791Z,1.17
2023-01-07T04:00:45.008Z,1.20
2023-01-07T04:03:17.505Z,1.20
2023-01-07T04:05:47.521Z,1.10
2023-01-07T04:08:14.853Z,1.20
2023-01-07T04:10:42.965Z,1.30
2023-01-07T04:13:12.169Z,1.40
2023-01-07T04:15:42.504Z,1.60
2023-01-07T04:18:10.316Z,1.10
2023-01-07T04:20:38.082Z,1.33
2023-01-07T04:23:05.388Z,1.50
2023-01-07T04:25:32.625Z,1.38
2023-01-07T04:28:03.277Z,1.33
2023-01-07T04:30:30.581Z,1.50
2023-01-07T04:32:57.819Z,1.40
2023-01-07T04:35:25.285Z,1.23
2023-01-07T04:37:52.688Z,1.20
2023-01-07T04:40:20.250Z,1.20
2023-01-07T04:42:48.045Z,1.50
2023-01-07T04:45:15.799Z,1.20
2023-01-07T04:47:43.204Z,1.13
2023-01-07T04:50:10.759Z,1.20
2023-01-07T04:52:38.040Z,1.20
2023-01-07T04:55:06.725Z,1.20
2023-01-07T04:57:34.098Z,1.40
2023-01-07T05:00:01.422Z,1.42
2023-01-07T05:02:30.818Z,1.30
2023-01-07T05:04:58.232Z,1.10
2023-01-07T05:07:26.228Z,1.20
2023-01-07T05:09:53.709Z,1.17
2023-01-07T05:12:21.010Z,1.40
2023-01-07T05:14:48.876Z,1.38
2023-01-07T05:17:16.420Z,1.58
2023-01-07T05:19:44.590Z,1.42
2023-01-07T05:22:13.651Z,1.52
2023-01-07T05:24:41.992Z,1.65
2023-01-07T05:27:09.381Z,1.55
2023-01-07T05:29:38.016Z,1.50
2023-01-07T05:32:05.743Z,1.27
2023-01-07T05:34:34.125Z,1.25
2023-01-07T05:37:01.515Z,1.50
2023-01-07T05:39:30.416Z,1.73
2023-01-07T05:41:57.764Z,1.30
2023-01-07T05:44:26.174Z,1.80
2023-01-07T05:46:53.499Z,1.67
2023-01-07T05:49:20.925Z,2.08
2023-01-07T05:51:48.202Z,1.90
2023-01-07T05:54:15.498Z,1.80
2023-01-07T05:56:42.803Z,1.77
2023-01-07T05:59:10.110Z,1.70
2023-01-07T06:01:37.568Z,1.90
2023-01-07T06:04:04.935Z,1.90
2023-01-07T06:06:32.239Z,1.70
2023-01-07T06:08:59.535Z,1.80
2023-01-07T06:11:26.848Z,1.70
2023-01-07T06:13:54.176Z,1.80
2023-01-07T06:16:23.612Z,2.78
2023-01-07T06:18:51.100Z,2.00
2023-01-07T06:21:18.447Z,1.80
2023-01-07T06:23:45.747Z,1.60
2023-01-07T06:26:13.088Z,1.55
2023-01-07T06:28:40.367Z,1.33
2023-01-07T06:31:10.800Z,1.63
2023-01-07T06:33:40.400Z,1.60
2023-01-07T06:36:08.414Z,1.63
2023-01-07T06:38:36.018Z,1.50
2023-01-07T06:41:03.651Z,1.70
2023-01-07T06:43:31.931Z,1.30
2023-01-07T06:45:59.384Z,1.40
2023-01-07T06:48:26.887Z,1.42
2023-01-07T06:50:54.178Z,1.25
2023-01-07T06:53:21.497Z,1.60
2023-01-07T06:55:49.900Z,1.58
2023-01-07T06:58:17.382Z,1.30
2023-01-07T07:00:45.007Z,1.30
2023-01-07T07:03:12.478Z,1.40
2023-01-07T07:05:39.990Z,1.10
2023-01-07T07:08:07.254Z,1.02
2023-01-07T07:10:35.498Z,1.30
2023-01-07T07:13:02.760Z,1.23
2023-01-07T07:15:30.206Z,1.13
2023-01-07T07:17:57.529Z,1.05
2023-01-07T07:20:24.802Z,1.00
2023-01-07T07:22:52.088Z,1.00
2023-01-07T07:25:19.600Z,1.10
2023-01-07T07:27:47.479Z,1.27
2023-01-07T07:30:15.461Z,1.30
2023-01-07T07:32:43.273Z,0.90
2023-01-07T07:35:11.603Z,1.38
2023-01-07T07:37:39.592Z,1.10
2023-01-07T07:40:09.049Z,1.13
2023-01-07T07:43:10.695Z,0.90
2023-01-07T07:45:26.002Z,1.35
2023-01-07T07:47:53.332Z,1.27
2023-01-07T07:50:20.631Z,1.52
2023-01-07T07:52:47.936Z,1.50
2023-01-07T07:55:20.082Z,1.63
2023-01-07T07:57:54.512Z,1.48
2023-01-07T08:00:22.316Z,1.55
2023-01-07T08:02:49.645Z,1.42
2023-01-07T08:05:16.965Z,1.70
2023-01-07T08:07:44.240Z,1.30
2023-01-07T08:10:11.525Z,1.60
2023-01-07T08:12:39.339Z,1.33
2023-01-07T08:15:09.043Z,1.40
2023-01-07T08:17:36.572Z,1.65
2023-01-07T08:20:05.560Z,1.50
2023-01-07T08:22:35.472Z,1.38
2023-01-07T08:25:02.970Z,1.30
2023-01-07T08:27:30.346Z,1.50
2023-01-07T08:29:57.658Z,1.25
2023-01-07T08:32:25.108Z,1.05
2023-01-07T08:34:52.592Z,1.10
2023-01-07T08:37:19.936Z,1.00
2023-01-07T08:39:47.283Z,1.15
2023-01-07T08:42:14.563Z,1.08
2023-01-07T08:44:41.839Z,0.95
2023-01-07T08:47:09.229Z,1.10
2023-01-07T08:49:36.515Z,1.10
2023-01-07T08:52:03.933Z,1.10
2023-01-07T08:54:31.256Z,1.10
2023-01-07T08:56:58.563Z,0.98
2023-01-07T08:59:25.899Z,1.00
2023-01-07T09:01:53.263Z,1.52
2023-01-07T09:04:20.666Z,1.08
2023-01-07T09:06:48.123Z,1.48
2023-01-07T09:09:16.626Z,1.10
2023-01-07T09:11:44.056Z,1.58
2023-01-07T09:14:11.564Z,1.20
2023-01-07T09:16:38.972Z,1.10
2023-01-07T09:19:06.417Z,1.27
2023-01-07T09:21:33.723Z,1.33
2023-01-07T09:24:01.017Z,1.00
2023-01-07T09:26:28.349Z,1.42
2023-01-07T09:28:55.637Z,1.20
2023-01-07T09:31:23.130Z,1.15
2023-01-07T09:33:51.645Z,1.20
2023-01-07T09:36:18.994Z,1.40
2023-01-07T09:38:46.373Z,1.67
2023-01-07T09:41:34.351Z,1.10
2023-01-07T09:44:40.529Z,1.00
2023-01-07T09:47:09.967Z,1.40
2023-01-07T09:49:37.709Z,1.30
2023-01-07T09:52:10.482Z,1.60
2023-01-07T09:54:39.692Z,1.08
2023-01-07T09:57:11.491Z,1.17
2023-01-07T09:59:38.855Z,1.45
2023-01-07T10:02:20.850Z,1.10
2023-01-07T10:04:58.234Z,1.35
2023-01-07T10:07:40.088Z,1.80
2023-01-07T10:11:08.937Z,1.27
2023-01-07T10:14:09.890Z,1.35
2023-01-07T10:16:48.278Z,1.50
2023-01-07T10:19:34.993Z,1.50
2023-01-07T10:22:10.358Z,1.20
2023-01-07T10:24:42.837Z,1.65
2023-01-07T10:27:15.978Z,1.30
2023-01-07T10:29:54.199Z,1.40
2023-01-07T10:32:24.296Z,1.15
2023-01-07T10:34:55.944Z,1.38
2023-01-07T10:37:32.798Z,1.30
2023-01-07T10:40:12.190Z,1.40
2023-01-07T10:42:55.111Z,1.40
2023-01-07T10:45:22.450Z,1.40
2023-01-07T10:48:05.139Z,1.50
2023-01-07T10:51:11.139Z,1.40
2023-01-07T10:53:53.706Z,1.90
2023-01-07T10:56:39.167Z,1.67
2023-01-07T10:59:15.096Z,1.40
2023-01-07T11:01:48.602Z,1.23
2023-01-07T11:04:16.682Z,1.52
2023-01-07T11:07:03.494Z,1.40
2023-01-07T11:09:36.044Z,1.10
2023-01-07T11:12:17.562Z,1.58
2023-01-07T11:14:46.697Z,1.00
2023-01-07T11:17:31.759Z,1.50
2023-01-07T11:22:26.470Z,1.48
2023-01-07T11:24:59.225Z,1.38
2023-01-07T11:27:30.169Z,1.17
2023-01-07T11:30:01.987Z,1.20
2023-01-07T11:32:32.283Z,1.30
2023-01-07T11:35:02.337Z,1.35
2023-01-07T11:37:42.154Z,0.95
2023-01-07T11:40:12.254Z,1.05
2023-01-07T11:43:01.839Z,1.40
2023-01-07T11:45:47.506Z,1.50
2023-01-07T11:48:37.081Z,1.20
2023-01-07T11:51:06.413Z,1.15
2023-01-07T11:53:49.011Z,1.10
2023-01-07T11:56:23.998Z,1.08
2023-01-07T11:59:13.346Z,1.10
2023-01-07T12:01:43.452Z,1.30
2023-01-07T12:04:13.727Z,1.30
2023-01-07T12:06:44.582Z,1.30
2023-01-07T12:09:31.117Z,1.00
2023-01-07T12:12:39.202Z,1.10
2023-01-07T12:15:19.083Z,1.10
2023-01-07T12:17:50.281Z,1.08
2023-01-07T12:20:52.867Z,1.20
2023-01-07T12:23:22.964Z,1.27
2023-01-07T12:25:53.315Z,1.08
2023-01-07T12:28:40.604Z,0.88
2023-01-07T12:31:27.450Z,0.95
2023-01-07T12:33:57.613Z,1.10
2023-01-07T12:36:24.901Z,1.10
2023-01-07T12:38:57.942Z,0.95
2023-01-07T12:41:36.832Z,0.73
2023-01-07T12:44:19.493Z,0.88
2023-01-07T12:47:31.120Z,0.80
2023-01-07T12:50:25.532Z,1.00
2023-01-07T12:53:13.161Z,1.08
2023-01-07T12:55:46.323Z,1.20
2023-01-07T12:58:37.965Z,1.20
2023-01-07T13:01:32.827Z,1.13
2023-01-07T13:04:18.887Z,1.17
2023-01-07T13:06:59.107Z,1.45
2023-01-07T13:09:59.902Z,1.35
2023-01-07T13:12:43.541Z,1.00
2023-01-07T13:15:27.904Z,1.08
2023-01-07T13:18:05.574Z,1.23
2023-01-07T13:20:49.902Z,1.65
2023-01-07T13:23:27.599Z,1.40
2023-01-07T13:26:20.538Z,1.20
2023-01-07T13:29:03.145Z,1.10
2023-01-07T13:31:50.661Z,1.23
2023-01-07T13:34:38.060Z,1.30
2023-01-07T13:37:15.031Z,1.13
2023-01-07T13:40:07.187Z,1.05
2023-01-07T13:42:50.483Z,1.20
2023-01-07T13:45:21.446Z,1.30
2023-01-07T13:47:52.194Z,1.50
2023-01-07T13:50:33.382Z,1.52
2023-01-07T13:53:26.814Z,1.00
2023-01-07T13:56:17.173Z,1.10
2023-01-07T13:58:49.830Z,1.50
2023-01-07T14:01:22.158Z,1.50
2023-01-07T14:03:58.815Z,1.60
2023-01-07T14:06:47.621Z,1.63
2023-01-07T14:09:19.383Z,1.33
2023-01-07T14:12:25.767Z,1.60
2023-01-07T14:15:01.693Z,1.20
2023-01-07T14:17:37.928Z,1.42
2023-01-07T14:20:21.155Z,1.63
2023-01-07T14:22:54.585Z,1.70
2023-01-07T14:25:56.037Z,1.63
2023-01-07T14:28:33.262Z,1.95
2023-01-07T14:31:00.741Z,1.73
2023-01-07T14:33:34.870Z,1.30
2023-01-07T14:36:06.455Z,1.45
2023-01-07T14:38:33.700Z,1.50
2023-01-07T14:41:13.267Z,1.35
2023-01-07T14:43:40.548Z,1.58
2023-01-07T14:46:36.879Z,1.60
2023-01-07T14:49:25.476Z,1.45
2023-01-07T14:51:54.877Z,1.88
2023-01-07T14:54:47.267Z,1.40
2023-01-07T14:57:35.332Z,1.55
2023-01-07T15:00:22.521Z,1.55
2023-01-07T15:03:11.917Z,1.48
2023-01-07T15:05:42.240Z,1.42
2023-01-07T15:08:31.135Z,1.58
2023-01-07T15:11:19.557Z,1.60
2023-01-07T15:14:22.288Z,1.50
2023-01-07T15:16:51.976Z,1.83
2023-01-07T15:19:21.755Z,1.42
2023-01-07T15:22:12.245Z,1.60
2023-01-07T15:25:32.932Z,1.75
2023-01-07T15:28:09.445Z,1.35
2023-01-07T15:30:48.880Z,1.80
2023-01-07T15:33:25.327Z,2.53
2023-01-07T15:35:52.775Z,1.65
2023-01-07T15:38:27.781Z,1.55
2023-01-07T15:40:56.887Z,2.65
2023-01-07T15:43:27.737Z,1.73
2023-01-07T15:46:00.625Z,1.90
2023-01-07T15:48:28.317Z,1.73
2023-01-07T15:50:55.952Z,1.70
2023-01-07T15:53:28.507Z,1.67
2023-01-07T15:56:03.849Z,2.20
2023-01-07T15:58:48.700Z,1.77
2023-01-07T16:01:22.232Z,2.17
2023-01-07T16:03:53.509Z,2.30
2023-01-07T16:06:23.844Z,1.85
2023-01-07T16:08:51.513Z,1.98
2023-01-07T16:11:36.700Z,2.05
2023-01-07T16:14:12.975Z,1.90
2023-01-07T16:16:40.399Z,2.00
2023-01-07T16:19:20.156Z,2.17
2023-01-07T16:21:57.626Z,1.98
2023-01-07T16:24:25.179Z,2.05
2023-01-07T16:26:59.796Z,2.20
2023-01-07T16:29:48.609Z,2.08
2023-01-07T16:32:16.826Z,2.00
2023-01-07T16:34:59.325Z,2.03
2023-01-07T16:37:28.003Z,2.03
2023-01-07T16:39:55.625Z,2.10
2023-01-07T16:42:23.543Z,1.85
2023-01-07T16:44:50.829Z,2.38
2023-01-07T16:47:21.545Z,1.90
2023-01-07T16:50:12.327Z,1.80
2023-01-07T16:52:57.578Z,2.10
2023-01-07T16:55:45.199Z,1.95
2023-01-07T16:58:48.961Z,2.20
2023-01-07T17:01:34.045Z,2.28
2023-01-07T17:04:07.520Z,2.28
2023-01-07T17:06:41.194Z,2.55
2023-01-07T17:09:32.124Z,2.05
2023-01-07T17:11:59.644Z,2.40
2023-01-07T17:14:32.945Z,2.25
2023-01-07T17:17:04.088Z,2.40
2023-01-07T17:19:39.134Z,1.85
2023-01-07T17:22:33.023Z,2.28
2023-01-07T17:25:15.554Z,2.10
2023-01-07T17:27:54.814Z,2.33
2023-01-07T17:30:25.124Z,2.20
2023-01-07T17:32:53.019Z,2.58
2023-01-07T17:35:23.136Z,2.42
2023-01-07T17:37:51.619Z,2.15
2023-01-07T17:40:20.452Z,2.30
2023-01-07T17:43:08.303Z,2.10
2023-01-07T17:45:36.455Z,2.80
2023-01-07T17:48:13.956Z,2.20
2023-01-07T17:50:41.912Z,2.00
2023-01-07T17:53:31.207Z,2.10
2023-01-07T17:56:00.829Z,2.28
2023-01-07T17:58:30.412Z,2.20
2023-01-07T18:00:59.946Z,2.85
2023-01-07T18:03:28.073Z,2.72
2023-01-07T18:05:55.348Z,1.90
2023-01-07T18:08:22.845Z,3.08
2023-01-07T18:11:10.689Z,2.42
2023-01-07T18:13:38.043Z,2.33
2023-01-07T18:16:05.986Z,2.67
2023-01-07T18:18:33.415Z,2.80
2023-01-07T18:21:00.737Z,2.42
2023-01-07T18:23:28.063Z,2.50
2023-01-07T18:25:55.421Z,2.72
2023-01-07T18:28:22.774Z,2.17
2023-01-07T18:30:49.999Z,2.50
2023-01-07T18:33:17.273Z,2.03
2023-01-07T18:35:44.497Z,2.33
2023-01-07T18:38:13.428Z,2.67
2023-01-07T18:40:41.331Z,2.92
2023-01-07T18:43:14.204Z,2.85
2023-01-07T18:45:43.149Z,3.10
2023-01-07T18:48:14.836Z,2.25
2023-01-07T18:50:43.660Z,2.53
2023-01-07T18:53:11.321Z,2.40
2023-01-07T18:55:40.099Z,2.33
2023-01-07T18:58:08.583Z,2.90
2023-01-07T19:00:36.173Z,2.72
2023-01-07T19:03:03.791Z,3.22
2023-01-07T19:05:31.412Z,2.85
2023-01-07T19:07:58.853Z,2.58
2023-01-07T19:10:26.715Z,2.72
2023-01-07T19:12:53.957Z,2.30
2023-01-07T19:15:21.245Z,2.28
2023-01-07T19:17:48.530Z,2.25
2023-01-07T19:20:16.429Z,2.40
2023-01-07T19:22:43.730Z,2.70
2023-01-07T19:25:11.049Z,2.40
2023-01-07T19:27:38.349Z,3.00
2023-01-07T19:30:06.241Z,2.30
2023-01-07T19:32:33.584Z,2.47
2023-01-07T19:35:00.838Z,2.17
2023-01-07T19:37:28.228Z,2.97
2023-01-07T19:39:55.493Z,2.60
2023-01-07T19:42:22.765Z,2.85
2023-01-07T19:44:49.986Z,2.55
2023-01-07T19:47:17.342Z,2.35
2023-01-07T19:49:45.341Z,1.98
2023-01-07T19:52:13.642Z,1.98
2023-01-07T19:54:41.816Z,2.15
2023-01-07T19:57:09.279Z,1.92
2023-01-07T19:59:36.649Z,1.75
2023-01-07T20:02:04.529Z,1.80
2023-01-07T20:04:31.971Z,1.85
2023-01-07T20:06:59.298Z,1.40
2023-01-07T20:09:26.585Z,1.83
2023-01-07T20:11:53.915Z,1.77
2023-01-07T20:14:21.161Z,1.80
2023-01-07T20:16:48.525Z,2.10
2023-01-07T20:19:15.803Z,1.70
2023-01-07T20:21:43.415Z,1.65
2023-01-07T20:24:12.312Z,1.48
2023-01-07T20:26:39.733Z,2.10
2023-01-07T20:29:07.079Z,1.50
2023-01-07T20:31:34.515Z,2.00
2023-01-07T20:34:01.942Z,1.70
2023-01-07T20:36:31.326Z,1.65
2023-01-07T20:39:05.021Z,1.70
2023-01-07T20:41:33.769Z,1.50
2023-01-07T20:44:02.993Z,1.60
2023-01-07T20:46:31.810Z,1.95
2023-01-07T20:48:59.499Z,1.98
2023-01-07T20:51:27.435Z,2.03
2023-01-07T20:53:54.781Z,1.67
2023-01-07T20:56:23.133Z,1.73
2023-01-07T20:58:51.228Z,1.90
2023-01-07T21:01:20.930Z,1.85
2023-01-07T21:03:49.181Z,1.95
2023-01-07T21:06:18.495Z,1.85
2023-01-07T21:08:47.373Z,1.77
2023-01-07T21:11:18.409Z,1.90
2023-01-07T21:13:46.220Z,1.83
2023-01-07T21:16:14.247Z,1.48
2023-01-07T21:18:42.457Z,1.80
2023-01-07T21:21:13.193Z,1.50
2023-01-07T21:23:40.971Z,1.95
2023-01-07T21:26:08.984Z,1.90
2023-01-07T21:28:36.581Z,3.45
2023-01-07T21:31:08.517Z,1.70
2023-01-07T21:33:36.236Z,1.50
2023-01-07T21:36:11.556Z,1.48
2023-01-07T21:38:39.057Z,1.40
2023-01-07T21:41:08.710Z,1.50
2023-01-07T21:43:36.464Z,1.35
2023-01-07T21:46:05.713Z,1.40
2023-01-07T21:48:37.745Z,1.63
2023-01-07T21:51:11.106Z,1.27
2023-01-07T21:53:38.528Z,1.50
2023-01-07T21:56:08.055Z,1.58
2023-01-07T21:58:36.122Z,1.40
2023-01-07T22:01:05.106Z,1.08
2023-01-07T22:03:33.422Z,1.38
2023-01-07T22:06:04.827Z,1.25
2023-01-07T22:08:32.355Z,1.20
2023-01-07T22:10:59.815Z,1.30
2023-01-07T22:13:27.485Z,1.67
2023-01-07T22:15:55.966Z,1.30
2023-01-07T22:18:23.327Z,1.17
2023-01-07T22:20:55.277Z,1.20
2023-01-07T22:23:23.251Z,1.13
2023-01-07T22:25:50.872Z,1.10
2023-01-07T22:28:20.200Z,1.10
2023-01-07T22:30:53.243Z,1.10
2023-01-07T22:33:22.682Z,1.15
2023-01-07T22:35:51.327Z,1.30
2023-01-07T22:38:21.935Z,1.33
2023-01-07T22:40:49.516Z,1.27
2023-01-07T22:43:20.287Z,1.90
2023-01-07T22:46:16.761Z,1.13
2023-01-07T22:48:44.452Z,1.40
2023-01-07T22:51:19.899Z,1.23
2023-01-07T22:53:50.063Z,1.30
2023-01-07T22:56:17.404Z,1.40
2023-01-07T22:58:44.634Z,1.05
2023-01-07T23:01:14.707Z,1.60
2023-01-07T23:03:43.117Z,1.30
2023-01-07T23:06:13.221Z,1.25
2023-01-07T23:08:41.719Z,1.10
2023-01-07T23:11:09.302Z,1.63
2023-01-07T23:13:37.279Z,1.75
2023-01-07T23:16:06.456Z,1.40
2023-01-07T23:18:33.914Z,1.60
2023-01-07T23:21:04.617Z,1.10
2023-01-07T23:23:31.935Z,1.80
2023-01-07T23:25:59.172Z,1.50
2023-01-07T23:28:26.435Z,1.40
2023-01-07T23:30:53.673Z,1.08
2023-01-07T23:33:20.948Z,1.40
2023-01-07T23:35:48.263Z,1.20
2023-01-07T23:38:15.522Z,1.27
2023-01-07T23:40:42.886Z,1.30
2023-01-07T23:43:10.372Z,1.30
2023-01-07T23:45:37.672Z,1.73
2023-01-07T23:48:05.016Z,1.30
2023-01-07T23:50:32.238Z,1.60
2023-01-07T23:52:59.603Z,1.38
2023-01-07T23:55:26.905Z,1.20
2023-01-07T23:57:54.270Z,1.10
